Skip Navigation Links
NOAA logo - Click to go to the NOAA homepage
NOAA's National Weather Service
Alaska Aviation Weather Unit
  NWS logo - Click to go to the NWS homepage
Left Navbar Graphic     10 AKDT = 18 GMT

   
NOAA is celebrating 200 years of science, service, and stewardship. Visit the NOAA 200th celebration Web site to learn more.
USA.gov is the U.S. Government's official Web portal to all Federal, state and local government Web resources and services.
Facebook
NWS on Facebook

Important Change Regarding the AAWU Web Presence

 

Over the last several months, the AAWU has been working to navigate its webpages to a nationally supported server. Security, as well as other needs, have necessitated the change.  We have been given an extension for the site changeover while we diligently work at addressing feedback received. As of July 14, 2017, aawu.arh.noaa.gov will be discontinued. The new AAWU web address is weather.gov/aawu. It is now live and will run in-parallel with the old site until it is discontinued on July 14, 2017. Please continue to send any feedback or questions regarding the new webpages to nws.ar.aawu.webauthors@noaa.gov.  Thank you for your patience during this time of transition.
AAWU Home :: Display TAF Add Bookmark
METAR PAMR 261253Z 02003KT 10SM FEW010 SCT070 05/04 A2974 RMK AO2 SLP073
     T00500039 $=

SPECI PAMR 261308Z 00000KT 10SM FEW007 SCT070 04/03 A2974 RMK AO2
     T00390033 $=

METAR PAMR 261353Z 00000KT 10SM FEW007 SCT070 03/03 A2974 RMK AO2 SLP070
     T00280028 $=

METAR PAMR 261453Z 00000KT 10SM BKN005 BKN070 04/04 A2973 RMK AO2 SLP067
     T00390039 56012 $=

PAMR 261458Z 00000KT 2SM BR BKN003 04/04 A2973 RMK AO2 T00390039
     $=

SPECI PAMR 261534Z 01005KT 1/2SM FG VV002 04/ A2972 RMK AO2 T0039 $=

METAR PAMR 261553Z 34007KT 1/2SM FG VV002 04/04 A2972 RMK AO2 SLP064
     T00390039 $=

METAR PAMR 261653Z 05004KT 1/4SM FG VV002 04/04 A2972 RMK AO2 SLP065
     T00390039 $=

METAR PAMR 261753Z 02004KT 1/2SM FG VV002 04/04 A2970 RMK AO2 SLP060
     T00440044 10056 20022 58008 $=


NOAA's National Weather Service
Alaska Aviation Weather Unit
6930 Sand Lake Road
Anchorage, AK 99502-1845
Disclaimer
Credits
Glossary
Privacy Policy
About Us
Career Opportunities
Contact AAWU Internet Services Site last modified: April, 17th 2012